Time;durP1;ratioP1;P1;durP2;ratioP2;P2;SDS_P1;SDS_P2;PMS_P1;PMS_P2;Temp;Humidity;BMP_temperature;BMP_pressure;BME280_temperature;BME280_humidity;BME280_pressure;Samples;Min_cycle;Max_cycle;Signal;HPM_P1;HPM_P2
2022/05/29 00:00:38;;;;;;;5.60;5.10;;;9.50;99.90;;;;;;4989282;28;20248;-76
2022/05/29 00:03:05;;;;;;;5.30;4.80;;;9.50;99.90;;;;;;4995168;28;20227;-76
2022/05/29 00:05:32;;;;;;;5.60;5.10;;;9.50;99.90;;;;;;4994061;28;20287;-77
2022/05/29 00:08:00;;;;;;;6.27;5.13;;;9.50;99.90;;;;;;4994715;28;20197;-75
2022/05/29 00:10:27;;;;;;;5.70;5.20;;;9.50;99.90;;;;;;4993705;28;20751;-76
2022/05/29 00:12:55;;;;;;;5.87;5.37;;;9.40;99.90;;;;;;4989216;28;20272;-76
2022/05/29 00:15:21;;;;;;;5.70;5.10;;;9.40;99.90;;;;;;4995382;28;20240;-76
2022/05/29 00:17:48;;;;;;;5.73;5.00;;;9.40;99.90;;;;;;4993411;28;20260;-77
2022/05/29 00:20:15;;;;;;;5.90;5.27;;;9.30;99.90;;;;;;4993124;28;20209;-76
2022/05/29 00:22:42;;;;;;;6.50;5.47;;;9.30;99.90;;;;;;4994343;28;20674;-77
2022/05/29 00:25:12;;;;;;;5.87;5.37;;;9.30;99.90;;;;;;4993598;28;20221;-76
2022/05/29 00:27:39;;;;;;;6.30;5.57;;;9.40;99.90;;;;;;4985459;28;20197;-76
2022/05/29 00:30:12;;;;;;;6.90;6.20;;;9.30;99.90;;;;;;4990221;28;20201;-76
2022/05/29 00:32:39;;;;;;;6.20;5.80;;;9.30;99.90;;;;;;4990488;28;20209;-76
2022/05/29 00:35:06;;;;;;;6.67;6.07;;;9.30;99.90;;;;;;4997809;28;20288;-77
2022/05/29 00:37:37;;;;;;;7.13;6.60;;;9.30;99.90;;;;;;4993289;28;20621;-76
2022/05/29 00:40:14;;;;;;;6.70;6.10;;;9.30;99.90;;;;;;4994571;28;20205;-76
2022/05/29 00:42:40;;;;;;;7.83;6.30;;;9.40;99.90;;;;;;4985445;28;20728;-76
2022/05/29 00:45:17;;;;;;;6.50;6.00;;;9.30;99.90;;;;;;4994331;28;20279;-76
2022/05/29 00:47:44;;;;;;;8.43;6.80;;;9.30;99.90;;;;;;4987753;28;20200;-76
2022/05/29 00:50:11;;;;;;;7.77;6.80;;;9.30;99.90;;;;;;4994161;28;20201;-76
2022/05/29 00:52:39;;;;;;;8.47;7.60;;;9.40;99.90;;;;;;4985088;28;20264;-76
2022/05/29 00:55:10;;;;;;;9.10;6.90;;;9.40;99.90;;;;;;4993139;28;20233;-77
2022/05/29 00:57:41;;;;;;;6.70;6.03;;;9.40;99.90;;;;;;4990377;28;20197;-76
2022/05/29 01:00:14;;;;;;;6.97;6.30;;;9.50;99.90;;;;;;4994370;28;20267;-76
2022/05/29 01:02:41;;;;;;;6.30;5.80;;;9.50;99.90;;;;;;4985649;28;20196;-76
2022/05/29 01:05:10;;;;;;;6.07;5.57;;;9.60;99.90;;;;;;4993842;28;20710;-76
2022/05/29 01:07:38;;;;;;;6.67;5.87;;;9.50;99.90;;;;;;4984832;28;20207;-76
2022/05/29 01:10:07;;;;;;;6.20;5.60;;;9.60;99.90;;;;;;4993050;28;20694;-77
2022/05/29 01:12:44;;;;;;;8.53;5.73;;;9.60;99.90;;;;;;4993658;28;20221;-77
2022/05/29 01:15:24;;;;;;;6.67;5.90;;;9.60;99.90;;;;;;4994263;28;20271;-77
2022/05/29 01:18:00;;;;;;;6.70;6.10;;;9.60;99.90;;;;;;4992585;28;20208;-77
2022/05/29 01:20:56;;;;;;;5.83;5.33;;;9.70;99.90;;;;;;4993910;28;20260;-76
2022/05/29 01:23:55;;;;;;;5.90;5.30;;;9.70;99.90;;;;;;4993566;28;20197;-76
2022/05/29 01:26:42;;;;;;;5.83;5.40;;;9.70;99.90;;;;;;4993750;28;20208;-76
2022/05/29 01:29:16;;;;;;;7.50;5.40;;;9.70;99.90;;;;;;4994045;28;20251;-76
2022/05/29 01:31:50;;;;;;;5.60;5.10;;;9.80;99.90;;;;;;4993253;28;20205;-76
2022/05/29 01:34:27;;;;;;;5.77;5.20;;;9.80;99.90;;;;;;4993625;28;20271;-76
2022/05/29 01:37:06;;;;;;;5.17;4.77;;;9.80;99.90;;;;;;4993116;28;20247;-78
2022/05/29 01:39:36;;;;;;;5.80;5.30;;;9.80;99.90;;;;;;4992447;28;20200;-76
2022/05/29 01:42:08;;;;;;;5.83;5.30;;;9.80;99.90;;;;;;4993288;28;20200;-76
2022/05/29 01:44:41;;;;;;;5.50;5.10;;;9.80;99.90;;;;;;4992266;28;20224;-76
2022/05/29 01:47:15;;;;;;;5.57;5.03;;;9.70;99.90;;;;;;4992401;28;20204;-76
2022/05/29 01:49:46;;;;;;;5.67;5.17;;;9.70;99.90;;;;;;4990593;28;20233;-76
2022/05/29 01:52:17;;;;;;;5.77;5.30;;;9.80;99.90;;;;;;4991844;28;20272;-78
2022/05/29 01:54:48;;;;;;;5.43;4.97;;;9.80;99.90;;;;;;4992055;28;20228;-77
2022/05/29 01:57:18;;;;;;;8.47;5.50;;;9.70;99.90;;;;;;4993441;28;20666;-76
2022/05/29 01:59:51;;;;;;;5.87;5.37;;;9.70;99.90;;;;;;4992544;28;20658;-77
2022/05/29 02:02:21;;;;;;;5.57;5.07;;;9.70;99.90;;;;;;4990842;28;20224;-76
2022/05/29 02:04:53;;;;;;;5.83;5.33;;;9.60;99.90;;;;;;4993455;28;20228;-77
2022/05/29 02:10:11;;;;;;;5.80;5.33;;;9.60;99.90;;;;;;4993390;28;20201;-77
2022/05/29 02:12:48;;;;;;;6.77;5.23;;;9.50;99.90;;;;;;4985307;28;20221;-77
2022/05/29 02:15:21;;;;;;;5.70;5.20;;;9.50;99.90;;;;;;4993169;28;20220;-76
2022/05/29 02:17:52;;;;;;;5.60;5.20;;;9.50;99.90;;;;;;4999820;28;20667;-76
2022/05/29 02:20:24;;;;;;;5.67;5.27;;;9.40;99.90;;;;;;4992054;28;20214;-77
2022/05/29 02:22:56;;;;;;;6.27;5.67;;;9.30;99.90;;;;;;4992901;28;20205;-76
2022/05/29 02:25:26;;;;;;;6.83;5.23;;;9.20;99.90;;;;;;4993020;28;20220;-76
2022/05/29 02:27:58;;;;;;;5.77;5.30;;;9.20;99.90;;;;;;4993399;28;20252;-76
2022/05/29 02:30:33;;;;;;;6.57;6.00;;;9.10;99.90;;;;;;4993012;28;20725;-76
2022/05/29 02:33:05;;;;;;;5.90;5.50;;;8.90;99.90;;;;;;4992889;28;20208;-76
2022/05/29 02:35:39;;;;;;;5.60;5.20;;;8.90;99.90;;;;;;4993991;28;20619;-76
2022/05/29 02:38:10;;;;;;;6.00;5.40;;;8.90;99.90;;;;;;4993266;28;20248;-76
2022/05/29 02:40:46;;;;;;;5.97;2.70;;;8.80;99.90;;;;;;4992902;28;20193;-76
2022/05/29 02:43:22;;;;;;;2.50;2.30;;;8.70;99.90;;;;;;4991333;28;20223;-78
2022/05/29 02:45:57;;;;;;;3.00;2.30;;;8.70;99.90;;;;;;4992921;28;20201;-76
2022/05/29 02:48:31;;;;;;;3.97;3.20;;;8.70;99.90;;;;;;4995486;28;20224;-76
2022/05/29 02:51:03;;;;;;;3.63;2.30;;;8.70;99.90;;;;;;4995962;28;20284;-76
2022/05/29 02:53:32;;;;;;;3.43;2.60;;;8.60;99.90;;;;;;4996428;28;20741;-77
2022/05/29 02:55:59;;;;;;;3.53;2.53;;;8.60;99.90;;;;;;4996174;28;20256;-76
2022/05/29 02:58:29;;;;;;;3.57;2.43;;;8.60;99.90;;;;;;4981181;28;20201;-76
2022/05/29 03:01:21;;;;;;;4.03;2.73;;;8.60;99.90;;;;;;4994685;28;20704;-76
2022/05/29 03:03:59;;;;;;;4.17;2.77;;;8.70;99.90;;;;;;4994281;28;20780;-76
2022/05/29 03:06:49;;;;;;;4.27;2.80;;;8.80;99.90;;;;;;4979390;28;20259;-76
2022/05/29 03:09:30;;;;;;;4.07;2.83;;;8.90;99.90;;;;;;4988294;28;20717;-76
2022/05/29 03:11:57;;;;;;;3.80;3.10;;;9.00;99.90;;;;;;4989125;28;20629;-76
2022/05/29 03:14:36;;;;;;;2.67;2.47;;;9.00;99.90;;;;;;4995528;28;20217;-76
2022/05/29 03:17:14;;;;;;;4.73;2.70;;;9.00;99.90;;;;;;4994419;28;20604;-76
2022/05/29 03:19:51;;;;;;;4.53;2.33;;;9.00;99.90;;;;;;4993149;28;20227;-77
2022/05/29 03:22:32;;;;;;;5.73;2.87;;;9.10;99.90;;;;;;4994348;28;20197;-77
2022/05/29 03:25:03;;;;;;;3.20;2.40;;;9.10;99.90;;;;;;4989222;28;20228;-76
2022/05/29 03:27:32;;;;;;;2.80;2.40;;;9.10;99.90;;;;;;4993982;28;20632;-77
2022/05/29 03:30:06;;;;;;;4.77;2.60;;;9.10;99.90;;;;;;4995661;28;20185;-77
2022/05/29 03:32:36;;;;;;;4.83;2.90;;;9.20;99.90;;;;;;4995608;28;20264;-77
2022/05/29 03:35:16;;;;;;;3.00;2.40;;;9.20;99.90;;;;;;4991685;28;20217;-77
2022/05/29 03:37:43;;;;;;;5.73;5.00;;;9.20;99.90;;;;;;4992624;28;20204;-78
2022/05/29 03:40:11;;;;;;;6.00;5.50;;;9.20;99.90;;;;;;4995676;28;20220;-77
2022/05/29 03:42:38;;;;;;;5.50;5.10;;;9.30;99.90;;;;;;4986339;28;20662;-77
2022/05/29 03:45:08;;;;;;;5.97;5.40;;;9.40;99.90;;;;;;5002055;28;20225;-78
2022/05/29 03:47:36;;;;;;;6.37;5.27;;;9.40;99.90;;;;;;4995186;28;20199;-77
2022/05/29 03:50:04;;;;;;;6.10;5.50;;;9.40;99.90;;;;;;4992764;28;20193;-77
2022/05/29 03:52:31;;;;;;;6.37;5.53;;;9.40;99.90;;;;;;4992829;28;20641;-78
2022/05/29 03:54:58;;;;;;;6.17;5.67;;;9.40;99.90;;;;;;4988630;28;20274;-78
2022/05/29 03:57:26;;;;;;;7.47;6.97;;;9.40;99.90;;;;;;4995446;28;20297;-78
2022/05/29 03:59:52;;;;;;;5.80;5.30;;;9.40;99.90;;;;;;4989895;28;20201;-77
2022/05/29 04:02:19;;;;;;;5.93;5.43;;;9.50;99.90;;;;;;4993624;28;20201;-77
2022/05/29 04:04:47;;;;;;;6.77;6.17;;;9.50;99.90;;;;;;4993141;28;20225;-77
2022/05/29 04:07:14;;;;;;;6.07;5.57;;;9.50;99.90;;;;;;4990607;28;20208;-77
2022/05/29 04:12:25;;;;;;;6.43;5.73;;;9.40;99.90;;;;;;4994443;28;20224;-77
2022/05/29 04:14:52;;;;;;;6.47;5.90;;;9.50;99.90;;;;;;4998518;28;20225;-78
2022/05/29 04:17:20;;;;;;;6.90;6.30;;;9.60;99.90;;;;;;4993255;28;20200;-78
2022/05/29 04:19:48;;;;;;;6.87;6.17;;;9.60;99.90;;;;;;4992614;28;20197;-79
2022/05/29 04:22:17;;;;;;;6.27;5.87;;;9.80;99.90;;;;;;4998533;28;20280;-78
2022/05/29 04:24:44;;;;;;;6.90;6.30;;;9.80;99.90;;;;;;4993681;28;20221;-80
2022/05/29 04:27:13;;;;;;;5.27;4.87;;;9.90;99.90;;;;;;4991714;28;20713;-78
2022/05/29 04:29:39;;;;;;;4.83;2.83;;;10.00;99.90;;;;;;4996446;28;20284;-80
2022/05/29 04:34:55;;;;;;;4.93;3.27;;;10.20;99.90;;;;;;4992281;28;20641;-78
2022/05/29 04:37:22;;;;;;;2.90;2.70;;;10.30;99.90;;;;;;4990869;28;20205;-78
2022/05/29 04:39:49;;;;;;;6.23;5.40;;;10.40;99.90;;;;;;4995930;28;20196;-80
2022/05/29 04:42:15;;;;;;;6.20;5.80;;;10.50;99.90;;;;;;4994830;28;20225;-77
2022/05/29 04:44:42;;;;;;;6.07;5.67;;;10.60;99.90;;;;;;4997196;28;20221;-77
2022/05/29 04:47:10;;;;;;;5.83;5.33;;;10.80;99.90;;;;;;4992930;28;20200;-77
2022/05/29 04:49:37;;;;;;;5.67;5.27;;;10.80;99.90;;;;;;4990989;28;20193;-78
2022/05/29 04:52:06;;;;;;;6.20;5.53;;;10.70;99.90;;;;;;4995067;28;20217;-77
2022/05/29 04:54:34;;;;;;;6.43;6.03;;;10.80;99.90;;;;;;4996615;28;20249;-77
2022/05/29 04:57:00;;;;;;;6.40;5.90;;;10.80;99.90;;;;;;4998270;28;20615;-77
2022/05/29 04:59:27;;;;;;;7.57;6.13;;;10.80;99.90;;;;;;4996571;28;20210;-77
2022/05/29 05:01:55;;;;;;;5.60;5.20;;;10.80;99.90;;;;;;4997781;28;20241;-77
2022/05/29 05:04:22;;;;;;;5.93;5.43;;;11.00;99.90;;;;;;4998207;28;20303;-78
2022/05/29 05:06:49;;;;;;;6.23;5.60;;;11.20;99.90;;;;;;4998215;28;20229;-77
2022/05/29 05:09:17;;;;;;;6.73;6.20;;;11.50;99.90;;;;;;4997534;28;20244;-77
2022/05/29 05:11:44;;;;;;;5.87;5.47;;;11.50;99.90;;;;;;4997417;28;20201;-77
2022/05/29 05:14:11;;;;;;;6.97;6.37;;;11.80;99.90;;;;;;4998366;28;20230;-78
2022/05/29 05:16:38;;;;;;;5.87;5.37;;;12.00;99.90;;;;;;4997457;28;20203;-77
2022/05/29 05:19:04;;;;;;;3.20;2.80;;;12.20;99.90;;;;;;4997803;28;20257;-78
2022/05/29 05:21:31;;;;;;;5.80;3.90;;;12.50;99.90;;;;;;4991922;28;20562;-78
2022/05/29 05:23:58;;;;;;;5.83;5.27;;;12.60;99.90;;;;;;4994457;28;20345;-77
2022/05/29 05:26:28;;;;;;;5.50;5.00;;;12.80;99.90;;;;;;4997016;28;20232;-78
2022/05/29 05:28:54;;;;;;;5.10;4.70;;;12.80;99.90;;;;;;4994271;28;20205;-77
2022/05/29 05:31:21;;;;;;;4.87;4.37;;;12.80;99.90;;;;;;4997776;28;20748;-77
2022/05/29 05:33:48;;;;;;;3.00;2.60;;;12.60;99.90;;;;;;4994382;28;20642;-77
2022/05/29 05:36:15;;;;;;;5.43;5.00;;;12.50;99.90;;;;;;4996085;28;20200;-78
2022/05/29 05:38:42;;;;;;;6.13;5.53;;;12.50;99.90;;;;;;4997176;28;20208;-78
2022/05/29 05:41:10;;;;;;;5.80;5.23;;;12.70;99.90;;;;;;4995129;28;20623;-77
2022/05/29 05:43:40;;;;;;;5.33;4.83;;;13.20;99.90;;;;;;4995434;28;20316;-78
2022/05/29 05:46:07;;;;;;;4.47;4.07;;;13.80;99.90;;;;;;4996038;28;20200;-77
2022/05/29 05:48:34;;;;;;;3.43;2.87;;;14.50;99.90;;;;;;4995256;28;20262;-78
2022/05/29 05:51:01;;;;;;;3.00;2.43;;;15.20;99.90;;;;;;4988603;28;20259;-77
2022/05/29 05:53:28;;;;;;;2.73;2.47;;;16.00;99.90;;;;;;4994415;28;20282;-78
2022/05/29 05:55:55;;;;;;;4.37;3.23;;;16.40;99.90;;;;;;4995826;28;20247;-78
2022/05/29 05:58:22;;;;;;;4.80;3.60;;;17.00;99.90;;;;;;4990816;28;20303;-78
2022/05/29 06:00:51;;;;;;;4.40;3.30;;;17.60;99.90;;;;;;4994977;28;20201;-78
2022/05/29 06:03:18;;;;;;;3.30;2.80;;;17.60;99.90;;;;;;4984952;28;20206;-78
2022/05/29 06:05:45;;;;;;;2.30;1.90;;;18.00;99.90;;;;;;4992647;28;20198;-79
2022/05/29 06:08:11;;;;;;;5.13;2.60;;;18.30;99.90;;;;;;4993707;28;20208;-79
2022/05/29 06:10:38;;;;;;;5.50;2.63;;;18.80;99.90;;;;;;4987393;28;20259;-78
2022/05/29 06:13:07;;;;;;;3.23;2.27;;;19.10;99.90;;;;;;4990658;28;20225;-78
2022/05/29 06:15:35;;;;;;;4.20;3.10;;;18.80;99.90;;;;;;4992687;28;20209;-79
2022/05/29 06:18:03;;;;;;;3.80;3.07;;;18.30;99.90;;;;;;4993276;28;20204;-78
2022/05/29 06:20:29;;;;;;;5.73;4.13;;;18.00;99.90;;;;;;4993891;28;20204;-79
2022/05/29 06:22:56;;;;;;;5.30;4.90;;;17.20;99.90;;;;;;4996322;28;20204;-78
2022/05/29 06:25:23;;;;;;;5.50;4.73;;;16.60;99.90;;;;;;4999013;28;20246;-78
2022/05/29 06:27:50;;;;;;;5.10;4.60;;;16.40;99.90;;;;;;4993898;28;20199;-78
2022/05/29 06:30:17;;;;;;;3.80;2.50;;;16.40;99.90;;;;;;4994536;28;20203;-78
2022/05/29 06:32:44;;;;;;;6.67;2.40;;;16.40;99.90;;;;;;5000978;28;20214;-78
2022/05/29 06:35:14;;;;;;;4.47;2.80;;;16.50;99.90;;;;;;4997367;28;20632;-78
2022/05/29 06:37:42;;;;;;;8.33;2.30;;;16.00;99.90;;;;;;4993547;28;20245;-79
2022/05/29 06:40:11;;;;;;;4.57;3.03;;;15.80;99.90;;;;;;5009067;28;20678;-78
2022/05/29 06:42:38;;;;;;;3.70;3.30;;;15.50;99.90;;;;;;4993856;28;20219;-79
2022/05/29 06:45:07;;;;;;;2.90;2.30;;;15.50;99.90;;;;;;4994239;28;20290;-78
2022/05/29 06:47:34;;;;;;;4.60;4.20;;;15.40;99.90;;;;;;4992035;28;20321;-79
2022/05/29 06:50:01;;;;;;;2.30;2.10;;;15.40;99.90;;;;;;4995520;28;20203;-80
2022/05/29 06:52:31;;;;;;;3.80;2.37;;;15.30;99.90;;;;;;4995479;28;20706;-80
2022/05/29 06:54:58;;;;;;;3.87;2.60;;;15.20;99.90;;;;;;4995401;28;20225;-78
2022/05/29 06:57:37;;;;;;;4.17;3.47;;;15.10;99.90;;;;;;4994092;28;20208;-79
2022/05/29 07:08:21;;;;;;;5.20;4.80;;;14.50;99.90;;;;;;4944420;28;20202;-78
2022/05/29 07:10:48;;;;;;;5.77;5.27;;;14.40;99.90;;;;;;4997943;28;20204;-78
2022/05/29 07:13:15;;;;;;;5.87;5.33;;;14.20;99.90;;;;;;4995543;28;20306;-79
2022/05/29 07:15:42;;;;;;;5.87;5.23;;;14.20;99.90;;;;;;4994949;28;20203;-78
2022/05/29 07:18:08;;;;;;;5.87;5.33;;;14.10;99.90;;;;;;4991213;28;20204;-78
2022/05/29 07:20:36;;;;;;;5.53;5.13;;;14.10;99.90;;;;;;4991170;28;20244;-77
2022/05/29 07:23:02;;;;;;;6.93;5.83;;;13.90;99.90;;;;;;4989760;28;20204;-77
2022/05/29 07:25:31;;;;;;;5.63;5.13;;;13.80;99.90;;;;;;4995011;28;20635;-77
2022/05/29 07:27:58;;;;;;;5.87;5.27;;;13.70;99.90;;;;;;4996450;28;20698;-77
2022/05/29 07:30:26;;;;;;;6.40;5.50;;;13.60;99.90;;;;;;4994159;28;20210;-77
2022/05/29 07:32:52;;;;;;;6.10;5.60;;;13.60;99.90;;;;;;4995157;28;20213;-77
2022/05/29 07:35:19;;;;;;;5.50;5.10;;;13.50;99.90;;;;;;4994714;28;20662;-78
2022/05/29 07:37:46;;;;;;;5.63;5.20;;;13.40;99.90;;;;;;4995176;28;20195;-78
2022/05/29 07:40:13;;;;;;;6.30;5.77;;;13.60;99.90;;;;;;4994851;28;20217;-77
2022/05/29 07:45:25;;;;;;;7.03;5.30;;;13.50;99.90;;;;;;4995889;28;20227;-78
2022/05/29 07:47:52;;;;;;;6.00;5.57;;;13.40;99.90;;;;;;4994569;28;20236;-78
2022/05/29 07:50:21;;;;;;;6.00;5.60;;;13.50;99.90;;;;;;4997017;28;20197;-77
2022/05/29 07:52:50;;;;;;;6.10;5.50;;;13.40;99.90;;;;;;4998031;28;20217;-78
2022/05/29 07:55:18;;;;;;;5.97;5.37;;;13.40;99.90;;;;;;4995273;28;20608;-78
2022/05/29 07:57:46;;;;;;;7.00;5.43;;;13.60;99.90;;;;;;5000826;28;20209;-78
2022/05/29 08:00:16;;;;;;;5.70;5.30;;;13.60;99.90;;;;;;4996642;28;20591;-77
2022/05/29 08:02:44;;;;;;;5.30;4.80;;;13.70;99.90;;;;;;5001808;28;20200;-77
2022/05/29 08:05:12;;;;;;;5.53;5.03;;;13.90;99.90;;;;;;4996521;28;20225;-77
2022/05/29 08:07:40;;;;;;;5.23;4.83;;;13.90;99.90;;;;;;4993231;28;20277;-76
2022/05/29 08:10:08;;;;;;;6.33;5.27;;;13.90;99.90;;;;;;4998121;28;20208;-77
2022/05/29 08:12:35;;;;;;;5.87;5.20;;;13.80;99.90;;;;;;4997610;28;20774;-77
2022/05/29 08:15:04;;;;;;;5.67;5.00;;;13.90;99.90;;;;;;4997508;28;20704;-77
2022/05/29 08:17:31;;;;;;;5.90;5.30;;;14.20;99.90;;;;;;4996573;28;20303;-77
2022/05/29 08:19:58;;;;;;;4.20;3.90;;;14.30;99.90;;;;;;4994102;28;20280;-78
2022/05/29 08:22:25;;;;;;;3.07;2.20;;;14.30;99.90;;;;;;4999006;28;20254;-77
2022/05/29 08:30:41;;;;;;;4.97;4.53;;;16.40;99.90;;;;;;4989556;28;20800;-77
2022/05/29 08:33:09;;;;;;;4.70;4.30;;;16.80;99.90;;;;;;4987565;28;20703;-77
2022/05/29 08:35:37;;;;;;;4.97;4.57;;;17.50;99.90;;;;;;4991018;28;20235;-78
2022/05/29 08:38:05;;;;;;;5.57;5.07;;;18.50;99.90;;;;;;5003571;28;20275;-78
2022/05/29 08:40:33;;;;;;;3.47;2.57;;;18.30;99.90;;;;;;4997559;28;20194;-79
2022/05/29 08:43:00;;;;;;;5.33;4.30;;;18.00;99.90;;;;;;4990246;28;20205;-78
2022/05/29 08:45:34;;;;;;;5.00;4.50;;;17.80;99.90;;;;;;4995487;28;20221;-78
2022/05/29 08:48:01;;;;;;;3.57;2.33;;;17.60;99.90;;;;;;4993306;28;20221;-78
2022/05/29 08:50:37;;;;;;;2.87;2.27;;;18.00;99.90;;;;;;4998042;28;20203;-78
2022/05/29 08:53:06;;;;;;;4.60;3.90;;;18.10;99.90;;;;;;4995527;28;20226;-77
2022/05/29 08:55:40;;;;;;;3.73;3.40;;;17.70;99.90;;;;;;4999283;28;20220;-77
2022/05/29 08:58:18;;;;;;;4.40;4.10;;;18.00;99.90;;;;;;4991447;28;20211;-77
2022/05/29 09:00:53;;;;;;;4.97;3.70;;;17.90;99.90;;;;;;5011899;28;20242;-78
2022/05/29 09:03:45;;;;;;;5.20;4.70;;;18.00;99.90;;;;;;4992890;28;20735;-77
2022/05/29 09:06:16;;;;;;;4.93;3.93;;;17.50;99.90;;;;;;4997817;28;20290;-78
2022/05/29 09:08:48;;;;;;;2.10;1.90;;;16.90;99.90;;;;;;5000831;28;20229;-77
2022/05/29 09:11:20;;;;;;;3.33;2.23;;;16.80;99.90;;;;;;4996185;28;20233;-77
2022/05/29 09:13:51;;;;;;;4.07;3.50;;;16.30;99.90;;;;;;5002746;28;20236;-78
2022/05/29 09:16:23;;;;;;;2.67;2.10;;;16.00;99.90;;;;;;4995526;28;20229;-78
2022/05/29 09:19:02;;;;;;;3.37;2.10;;;15.90;99.90;;;;;;4997049;28;20197;-77
2022/05/29 09:21:44;;;;;;;5.33;3.47;;;15.60;99.90;;;;;;4990126;28;20200;-78
2022/05/29 09:24:17;;;;;;;6.83;4.37;;;15.10;99.90;;;;;;4991342;28;20284;-79
2022/05/29 09:26:49;;;;;;;11.53;5.67;;;14.50;99.90;;;;;;4992476;28;20204;-79
2022/05/29 09:29:16;;;;;;;8.43;6.20;;;13.90;99.90;;;;;;5002212;28;20272;-78
2022/05/29 09:31:45;;;;;;;9.27;5.97;;;13.40;99.90;;;;;;5000248;28;20195;-77
2022/05/29 09:34:12;;;;;;;8.33;5.20;;;13.20;99.90;;;;;;5005608;28;20580;-78
2022/05/29 09:36:57;;;;;;;8.47;6.50;;;12.90;99.90;;;;;;5000784;28;20209;-78
2022/05/29 09:40:23;;;;;;;8.80;6.13;;;12.70;99.90;;;;;;5002563;28;20229;-79
2022/05/29 09:43:07;;;;;;;7.13;5.30;;;12.40;99.90;;;;;;4925989;29;20657;-78
2022/05/29 09:46:32;;;;;;;8.20;5.90;;;12.10;99.90;;;;;;4936620;29;20645;-79
2022/05/29 09:49:41;;;;;;;7.60;6.80;;;11.90;99.90;;;;;;4938596;28;20209;-79
2022/05/29 09:52:15;;;;;;;7.70;7.00;;;11.70;99.90;;;;;;4991086;28;20288;-77
2022/05/29 09:54:45;;;;;;;7.57;6.80;;;11.60;99.90;;;;;;4990232;28;20250;-77
2022/05/29 09:57:14;;;;;;;7.10;6.40;;;11.60;99.90;;;;;;5004202;28;20264;-78
2022/05/29 09:59:44;;;;;;;7.30;6.50;;;11.50;99.90;;;;;;4998620;28;20202;-78
2022/05/29 10:02:25;;;;;;;8.23;6.47;;;11.40;99.90;;;;;;4998952;28;20207;-77
2022/05/29 10:04:57;;;;;;;6.23;5.63;;;11.20;99.90;;;;;;4995785;28;20244;-77
2022/05/29 10:07:33;;;;;;;6.93;5.77;;;11.20;99.90;;;;;;4996850;28;20207;-78
2022/05/29 10:10:05;;;;;;;6.37;5.87;;;11.10;99.90;;;;;;4991948;28;20215;-77
2022/05/29 10:12:42;;;;;;;7.30;6.13;;;11.20;99.90;;;;;;4996196;28;20731;-78
2022/05/29 10:15:15;;;;;;;7.10;6.43;;;11.30;99.90;;;;;;4995664;28;20251;-78
2022/05/29 10:17:42;;;;;;;6.70;6.20;;;11.40;99.90;;;;;;4992240;28;20633;-78
2022/05/29 10:20:31;;;;;;;6.90;6.03;;;11.60;99.90;;;;;;5002559;28;20687;-78
2022/05/29 10:22:58;;;;;;;6.53;5.87;;;11.90;99.90;;;;;;5001494;28;20263;-77
2022/05/29 10:25:28;;;;;;;6.57;5.70;;;12.40;99.90;;;;;;5002952;28;20274;-77
2022/05/29 10:27:58;;;;;;;5.80;5.30;;;12.80;99.90;;;;;;5008088;28;20194;-78
2022/05/29 10:30:37;;;;;;;7.10;5.80;;;13.20;99.90;;;;;;5002206;28;20228;-77
2022/05/29 10:33:08;;;;;;;7.87;5.47;;;13.60;99.90;;;;;;5001513;28;20204;-78
2022/05/29 10:35:39;;;;;;;5.73;4.00;;;14.10;99.90;;;;;;4997510;28;20301;-78
2022/05/29 10:38:26;;;;;;;5.43;4.40;;;14.50;99.90;;;;;;4995502;28;20281;-78
2022/05/29 10:40:54;;;;;;;6.87;3.07;;;14.90;99.90;;;;;;5005388;28;20203;-78
2022/05/29 10:43:39;;;;;;;4.33;3.30;;;15.50;99.90;;;;;;4993382;28;20225;-79
2022/05/29 10:46:12;;;;;;;7.63;5.83;;;16.10;99.90;;;;;;4996262;28;20204;-78
2022/05/29 10:48:53;;;;;;;2.33;2.03;;;16.00;99.90;;;;;;4985780;28;20201;-79
2022/05/29 10:51:27;;;;;;;5.10;4.20;;;15.80;99.90;;;;;;4991073;28;20216;-79
2022/05/29 10:54:09;;;;;;;5.03;4.53;;;16.40;99.90;;;;;;5004777;28;20231;-80
2022/05/29 10:56:47;;;;;;;6.73;2.60;;;17.00;99.90;;;;;;4993330;28;20216;-79
2022/05/29 10:59:31;;;;;;;3.97;2.10;;;16.50;99.90;;;;;;4995719;28;20279;-79
2022/05/29 11:05:16;;;;;;;3.67;2.17;;;16.30;99.90;;;;;;4991856;28;20229;-83
2022/05/29 11:07:58;;;;;;;4.93;4.00;;;16.30;99.90;;;;;;4991299;28;20236;-79
2022/05/29 11:10:38;;;;;;;4.67;4.27;;;16.50;99.90;;;;;;4990227;28;20221;-79
2022/05/29 11:13:22;;;;;;;4.87;4.20;;;16.30;99.90;;;;;;4985703;28;20250;-79
2022/05/29 11:16:03;;;;;;;7.13;4.40;;;16.10;99.90;;;;;;5005794;28;20201;-79
2022/05/29 11:18:50;;;;;;;3.03;2.40;;;15.60;99.90;;;;;;5002143;28;20214;-79
2022/05/29 11:21:25;;;;;;;4.37;3.20;;;15.60;99.90;;;;;;4997476;28;20215;-79
2022/05/29 11:24:13;;;;;;;5.40;2.50;;;15.30;99.90;;;;;;4994486;28;20215;-79
2022/05/29 11:26:50;;;;;;;5.63;4.13;;;14.80;99.90;;;;;;4994986;28;20189;-81
2022/05/29 11:29:33;;;;;;;4.30;3.90;;;14.60;99.90;;;;;;4997535;28;20738;-77
2022/05/29 11:32:14;;;;;;;7.07;2.87;;;14.20;99.90;;;;;;4992266;28;20211;-78
2022/05/29 11:35:07;;;;;;;4.40;3.97;;;13.80;99.90;;;;;;4989561;28;20694;-78
2022/05/29 11:38:02;;;;;;;3.53;3.23;;;13.30;99.90;;;;;;4991611;28;20202;-78
2022/05/29 11:40:36;;;;;;;5.97;5.40;;;12.90;99.90;;;;;;5000463;28;20197;-77
2022/05/29 11:43:18;;;;;;;3.83;2.30;;;12.30;99.90;;;;;;4994844;28;20190;-78
2022/05/29 11:51:30;;;;;;;2.10;1.90;;;12.80;99.90;;;;;;4993854;28;20698;-77
2022/05/29 11:54:04;;;;;;;4.73;2.17;;;13.20;99.90;;;;;;4996576;28;20244;-77
2022/05/29 11:56:38;;;;;;;1.80;1.70;;;13.40;99.90;;;;;;4994078;28;20201;-77
2022/05/29 11:59:15;;;;;;;2.37;2.00;;;13.50;99.90;;;;;;4996221;28;20197;-77
2022/05/29 12:01:50;;;;;;;3.70;3.50;;;13.90;99.90;;;;;;4985592;28;20658;-77
2022/05/29 12:04:22;;;;;;;3.80;3.50;;;13.90;99.90;;;;;;4994457;28;20702;-77
2022/05/29 12:06:56;;;;;;;3.40;3.20;;;13.60;99.90;;;;;;4992804;28;20204;-77
2022/05/29 12:09:26;;;;;;;1.83;1.50;;;13.50;99.90;;;;;;5006123;28;20204;-77
2022/05/29 12:12:00;;;;;;;1.60;1.50;;;13.70;99.90;;;;;;4996074;28;20192;-78
2022/05/29 12:14:35;;;;;;;2.20;1.70;;;14.00;99.90;;;;;;4998684;28;20226;-80
2022/05/29 12:17:09;;;;;;;2.73;2.50;;;14.10;99.90;;;;;;4991617;28;20216;-78
2022/05/29 12:19:40;;;;;;;2.50;2.40;;;14.20;99.90;;;;;;4990930;28;20257;-77
2022/05/29 12:22:09;;;;;;;2.97;2.77;;;14.30;99.90;;;;;;4997317;28;20575;-77
2022/05/29 12:24:40;;;;;;;3.10;2.90;;;13.70;99.90;;;;;;4995268;28;20606;-77
2022/05/29 12:27:12;;;;;;;3.80;2.93;;;13.60;99.90;;;;;;5000488;28;20297;-77
2022/05/29 12:29:42;;;;;;;4.27;3.70;;;13.60;99.90;;;;;;5004727;28;20307;-77
2022/05/29 12:32:15;;;;;;;2.00;1.90;;;13.50;99.90;;;;;;4992057;28;20736;-77
2022/05/29 12:34:45;;;;;;;4.80;3.73;;;13.30;99.90;;;;;;4995207;28;20838;-77
2022/05/29 12:37:38;;;;;;;4.33;2.20;;;13.30;99.90;;;;;;5005018;28;20201;-77
2022/05/29 12:40:27;;;;;;;5.80;5.33;;;13.30;99.90;;;;;;4998157;28;20222;-78
2022/05/29 12:43:17;;;;;;;5.17;4.67;;;13.20;99.90;;;;;;4988735;28;20925;-77
2022/05/29 12:45:58;;;;;;;5.50;5.13;;;13.30;99.90;;;;;;4994354;28;20236;-78
2022/05/29 12:48:50;;;;;;;5.77;5.37;;;13.10;99.90;;;;;;4992032;28;20686;-77
2022/05/29 12:51:30;;;;;;;5.63;5.23;;;13.00;99.90;;;;;;4998390;28;20205;-77
2022/05/29 12:54:31;;;;;;;2.87;1.73;;;13.00;99.90;;;;;;4990447;28;20271;-79
2022/05/29 12:57:32;;;;;;;5.80;4.30;;;13.10;99.90;;;;;;5004378;28;20201;-77
2022/05/29 13:00:22;;;;;;;6.47;5.83;;;13.20;99.90;;;;;;5007468;28;20203;-76
2022/05/29 13:03:19;;;;;;;6.40;5.33;;;13.30;99.90;;;;;;4983442;28;20209;-77
2022/05/29 13:06:16;;;;;;;5.73;5.23;;;13.40;99.90;;;;;;4994804;28;20197;-76
2022/05/29 13:09:12;;;;;;;5.40;4.90;;;13.60;99.90;;;;;;5002756;28;20244;-76
2022/05/29 13:11:47;;;;;;;2.77;2.00;;;13.70;99.90;;;;;;4992551;28;20249;-76
2022/05/29 13:14:17;;;;;;;2.63;2.10;;;14.00;99.90;;;;;;4989232;28;20220;-76
2022/05/29 13:16:47;;;;;;;4.00;1.93;;;14.20;99.90;;;;;;4997142;28;20296;-76
2022/05/29 13:19:18;;;;;;;7.37;2.17;;;14.10;99.90;;;;;;4995469;28;20219;-75
2022/05/29 13:22:00;;;;;;;2.67;2.03;;;13.90;99.90;;;;;;5001624;28;20211;-76
2022/05/29 13:24:30;;;;;;;3.30;1.87;;;14.00;99.90;;;;;;4992654;28;20253;-75
2022/05/29 13:27:27;;;;;;;4.00;1.73;;;14.10;99.90;;;;;;4993893;28;20201;-76
2022/05/29 13:29:56;;;;;;;3.20;1.80;;;13.90;99.90;;;;;;4993831;28;20205;-76
2022/05/29 13:32:26;;;;;;;3.20;1.70;;;13.80;99.90;;;;;;4993486;28;20685;-77
2022/05/29 13:34:54;;;;;;;1.60;1.50;;;13.80;99.90;;;;;;4993760;28;20577;-77
2022/05/29 13:37:38;;;;;;;1.70;1.60;;;13.70;99.90;;;;;;4987559;28;20214;-77
2022/05/29 13:40:07;;;;;;;2.23;1.60;;;13.90;99.90;;;;;;4991212;28;20271;-77
2022/05/29 13:42:41;;;;;;;2.70;1.90;;;14.10;99.90;;;;;;4986598;28;20197;-76
2022/05/29 13:45:41;;;;;;;1.70;1.53;;;14.10;99.90;;;;;;4992833;28;20225;-77
2022/05/29 13:48:22;;;;;;;1.60;1.50;;;14.20;99.90;;;;;;4991291;28;20271;-77
2022/05/29 13:50:52;;;;;;;2.00;1.60;;;14.20;99.90;;;;;;4992160;28;20196;-77
2022/05/29 13:53:30;;;;;;;1.87;1.70;;;13.80;99.90;;;;;;4992955;28;20198;-78